Time;durP1;ratioP1;P1;durP2;ratioP2;P2;SDS_P1;SDS_P2;PMS_P1;PMS_P2;Temp;Humidity;BMP_temperature;BMP_pressure;BME280_temperature;BME280_humidity;BME280_pressure;Samples;Min_cycle;Max_cycle;Signal;HPM_P1;HPM_P2
2022/08/28 00:01:50;;;;;;;3.60;2.42;;;;;;;16.78;67.97;93352.16;5047195;28;20032;-70
2022/08/28 00:04:15;;;;;;;4.22;2.50;;;;;;;16.80;67.95;93343.91;5032904;28;20017;-70
2022/08/28 00:06:41;;;;;;;2.85;2.50;;;;;;;16.63;67.51;93307.88;5032809;28;20032;-73
2022/08/28 00:09:07;;;;;;;3.90;2.92;;;;;;;17.01;66.82;93354.41;5031537;28;20042;-71
2022/08/28 00:11:36;;;;;;;2.88;2.45;;;;;;;16.93;66.87;93354.59;5032850;28;20411;-71
2022/08/28 00:14:06;;;;;;;3.63;2.28;;;;;;;16.69;67.00;93338.97;5032596;28;20491;-72
2022/08/28 00:16:32;;;;;;;4.53;2.10;;;;;;;16.74;67.37;93334.41;5049117;28;20021;-72
2022/08/28 00:18:58;;;;;;;4.85;2.42;;;;;;;16.90;67.06;93355.03;5051766;28;20040;-71
2022/08/28 00:21:24;;;;;;;5.20;4.68;;;;;;;16.80;67.25;93360.66;5051354;28;20037;-72
2022/08/28 00:23:49;;;;;;;4.85;3.30;;;;;;;16.79;66.85;93356.38;5052589;28;20464;-73
2022/08/28 00:27:51;;;;;;;5.28;4.95;;;;;;;16.71;67.29;93349.50;5052357;28;20028;-72
2022/08/28 00:29:01;;;;;;;3.85;2.80;;;;;;;16.84;66.63;93371.34;5052414;28;20033;-70
2022/08/28 00:31:26;;;;;;;3.00;2.63;;;;;;;16.76;66.32;93351.28;5052448;28;20055;-71
2022/08/28 00:33:52;;;;;;;4.25;2.20;;;;;;;16.73;66.28;93363.59;5052174;28;20028;-71
2022/08/28 00:36:18;;;;;;;2.17;1.98;;;;;;;16.56;66.83;93362.47;5052336;28;20087;-71
2022/08/28 00:38:43;;;;;;;3.13;2.25;;;;;;;16.44;66.67;93358.06;5052254;28;20028;-70
2022/08/28 00:41:09;;;;;;;2.47;1.92;;;;;;;16.35;67.17;93367.19;5051721;28;20027;-71
2022/08/28 00:43:40;;;;;;;3.40;3.10;;;;;;;16.41;67.16;93357.19;5050433;28;20028;-69
2022/08/28 00:46:26;;;;;;;3.75;2.15;;;;;;;16.51;66.71;93360.72;5051746;28;20048;-69
2022/08/28 00:48:51;;;;;;;3.55;2.45;;;;;;;16.51;66.88;93362.78;5051833;28;20502;-69
2022/08/28 00:54:04;;;;;;;3.28;2.97;;;;;;;15.92;68.46;93316.03;5051992;28;20086;-71
2022/08/28 00:56:31;;;;;;;2.83;2.40;;;;;;;15.99;69.07;93351.38;5050772;28;20025;-68
2022/08/28 00:58:58;;;;;;;3.17;2.88;;;;;;;15.99;68.56;93347.84;5050602;28;20033;-70
2022/08/28 01:01:24;;;;;;;3.63;2.50;;;;;;;16.12;68.31;93350.91;5050575;28;20490;-69
2022/08/28 01:03:49;;;;;;;3.28;2.80;;;;;;;15.75;68.79;93319.72;5051798;28;20025;-69
2022/08/28 01:06:19;;;;;;;2.50;2.30;;;;;;;16.18;68.46;93354.13;5051767;28;20494;-69
2022/08/28 01:08:46;;;;;;;2.45;2.25;;;;;;;16.16;68.61;93350.47;5050629;28;20034;-69
2022/08/28 01:11:12;;;;;;;2.38;2.17;;;;;;;16.16;68.26;93347.69;5083912;28;20240;-69
2022/08/28 01:13:39;;;;;;;6.15;5.10;;;;;;;16.20;67.89;93354.28;5050392;28;20118;-70
2022/08/28 01:16:05;;;;;;;2.90;2.53;;;;;;;16.05;68.49;93337.88;5050463;28;20029;-69
2022/08/28 01:18:32;;;;;;;3.45;2.78;;;;;;;16.02;68.20;93335.53;5050154;28;20052;-70
2022/08/28 01:21:08;;;;;;;3.05;2.50;;;;;;;15.77;68.51;93313.56;5050565;28;20040;-70
2022/08/28 01:23:52;;;;;;;2.85;2.22;;;;;;;15.98;68.35;93347.13;5044499;28;20038;-69
2022/08/28 01:26:18;;;;;;;2.42;2.22;;;;;;;15.91;67.94;93339.66;5044668;28;20025;-69
2022/08/28 01:28:44;;;;;;;5.53;2.42;;;;;;;15.72;68.19;93320.88;5051123;28;20040;-69
2022/08/28 01:31:11;;;;;;;7.68;2.55;;;;;;;15.88;68.36;93335.25;5049545;28;20032;-68
2022/08/28 01:33:37;;;;;;;2.65;2.20;;;;;;;15.92;68.02;93344.63;5050645;28;20032;-70
2022/08/28 01:36:03;;;;;;;2.03;1.90;;;;;;;15.84;68.70;93332.16;5047520;28;20027;-70
2022/08/28 01:38:28;;;;;;;2.25;2.03;;;;;;;15.95;68.93;93342.72;5050703;28;20024;-70
2022/08/28 01:40:56;;;;;;;2.72;2.47;;;;;;;15.72;69.15;93314.59;5031046;28;20525;-70
2022/08/28 01:43:25;;;;;;;2.85;2.33;;;;;;;15.89;68.86;93345.06;5048398;28;20039;-70
2022/08/28 01:45:54;;;;;;;3.05;2.45;;;;;;;15.83;68.51;93342.56;5049324;28;20026;-70
2022/08/28 01:48:22;;;;;;;2.17;1.98;;;;;;;15.76;68.28;93345.50;5049427;28;20033;-70
2022/08/28 01:50:47;;;;;;;2.50;2.30;;;;;;;15.61;68.86;93343.75;5047963;28;20053;-71
2022/08/28 01:53:15;;;;;;;2.55;2.35;;;;;;;15.66;68.15;93342.69;5049458;28;20029;-70
2022/08/28 01:55:41;;;;;;;2.15;1.83;;;;;;;15.62;68.38;93350.03;5050088;28;20112;-70
2022/08/28 01:58:07;;;;;;;2.63;2.40;;;;;;;15.59;68.11;93340.78;5050833;28;20694;-70
2022/08/28 02:00:33;;;;;;;2.63;2.38;;;;;;;15.62;68.57;93339.63;5050759;28;20029;-70
2022/08/28 02:02:59;;;;;;;2.70;2.38;;;;;;;15.44;68.89;93313.25;5050695;28;20539;-70
2022/08/28 02:05:28;;;;;;;3.70;2.60;;;;;;;15.63;68.63;93334.81;5050673;28;20569;-70
2022/08/28 02:07:55;;;;;;;;;;;;;;;15.65;68.95;93329.38;5079325;28;20028;-69
2022/08/28 02:10:23;;;;;;;4.45;3.33;;;;;;;15.53;68.98;93329.22;5050486;28;20382;-71
2022/08/28 02:12:50;;;;;;;4.68;2.20;;;;;;;15.48;69.74;93333.03;5049654;28;20033;-70
2022/08/28 02:15:16;;;;;;;2.40;2.20;;;;;;;15.42;69.51;93329.03;5049199;28;20036;-70
2022/08/28 02:17:41;;;;;;;2.47;2.28;;;;;;;15.36;69.68;93312.63;5050421;28;20029;-70
2022/08/28 02:20:07;;;;;;;5.88;2.70;;;;;;;15.38;69.33;93328.72;5050455;28;20025;-70
2022/08/28 02:22:33;;;;;;;2.78;2.20;;;;;;;15.37;69.47;93330.06;5049441;28;20029;-70
2022/08/28 02:24:59;;;;;;;3.00;2.40;;;;;;;15.38;69.55;93343.38;5049470;28;20513;-69
2022/08/28 02:27:24;;;;;;;4.18;2.30;;;;;;;15.22;69.75;93317.16;5049676;28;20032;-70
2022/08/28 02:29:50;;;;;;;2.35;2.13;;;;;;;15.32;69.45;93345.72;5048966;28;20086;-69
2022/08/28 02:32:17;;;;;;;2.50;2.30;;;;;;;15.31;68.79;93330.31;5049513;28;20147;-69
2022/08/28 02:34:43;;;;;;;2.58;2.38;;;;;;;15.44;68.86;93346.63;5049630;28;20107;-70
2022/08/28 02:37:12;;;;;;;3.20;2.47;;;;;;;15.30;69.01;93350.38;5049570;28;20036;-69
2022/08/28 02:39:37;;;;;;;4.05;2.83;;;;;;;15.00;69.42;93332.91;5048267;28;20043;-69
2022/08/28 02:42:03;;;;;;;2.30;2.10;;;;;;;15.05;69.47;93347.84;5048311;28;20037;-69
2022/08/28 02:44:29;;;;;;;3.08;2.10;;;;;;;14.99;69.58;93347.34;5047435;28;20021;-69
2022/08/28 02:46:54;;;;;;;2.38;2.17;;;;;;;15.14;68.93;93339.50;5049311;28;20031;-69
2022/08/28 02:49:22;;;;;;;1.92;1.83;;;;;;;14.99;68.84;93317.50;5046930;28;20067;-70
2022/08/28 02:51:49;;;;;;;3.13;2.80;;;;;;;15.02;69.50;93346.94;5048097;28;20154;-70
2022/08/28 02:54:14;;;;;;;3.35;2.08;;;;;;;14.89;70.11;93352.91;5048240;28;20027;-70
2022/08/28 02:56:40;;;;;;;5.13;2.80;;;;;;;14.88;69.69;93343.06;5048305;28;20029;-69
2022/08/28 02:59:05;;;;;;;2.90;2.47;;;;;;;14.69;69.81;93320.78;5048011;28;20462;-70
2022/08/28 03:01:32;;;;;;;2.33;1.92;;;;;;;14.98;69.65;93355.00;5048111;28;20476;-71
2022/08/28 03:04:01;;;;;;;2.17;1.80;;;;;;;15.00;69.30;93352.34;5048584;28;20053;-71
2022/08/28 03:06:28;;;;;;;2.25;2.05;;;;;;;15.10;68.93;93361.44;5049946;28;20029;-71
2022/08/28 03:08:53;;;;;;;2.50;2.25;;;;;;;14.87;68.53;93336.06;5036193;28;20044;-73
2022/08/28 03:11:18;;;;;;;3.08;2.38;;;;;;;15.06;68.29;93369.50;5029968;28;20025;-71
2022/08/28 03:13:44;;;;;;;5.45;2.65;;;;;;;14.77;69.01;93351.94;5029551;28;20458;-71
2022/08/28 03:16:10;;;;;;;3.13;2.47;;;;;;;14.92;68.66;93364.91;5028965;28;20017;-71
2022/08/28 03:18:35;;;;;;;2.65;2.35;;;;;;;14.95;68.87;93375.59;5029904;28;20418;-69
2022/08/28 03:21:01;;;;;;;3.72;2.17;;;;;;;14.91;68.93;93360.66;5028619;28;20025;-70
2022/08/28 03:23:27;;;;;;;2.20;2.03;;;;;;;14.91;69.32;93374.53;5029875;28;20029;-70
2022/08/28 03:26:03;;;;;;;2.90;2.60;;;;;;;14.96;69.11;93368.00;5030810;28;20025;-71
2022/08/28 03:28:32;;;;;;;3.08;2.38;;;;;;;14.87;69.42;93372.19;5048823;28;20032;-71
2022/08/28 03:30:58;;;;;;;2.40;2.22;;;;;;;14.88;68.78;93359.75;5042410;28;20025;-71
2022/08/28 03:33:24;;;;;;;2.17;1.98;;;;;;;14.82;69.85;93366.91;5029670;28;20083;-70
2022/08/28 03:35:49;;;;;;;2.05;1.90;;;;;;;14.76;69.47;93372.00;5029687;28;20480;-70
2022/08/28 03:38:16;;;;;;;3.45;2.85;;;;;;;14.86;68.88;93375.53;5028546;28;20107;-69
2022/08/28 03:40:44;;;;;;;3.15;2.70;;;;;;;14.91;68.71;93375.28;5029902;28;20392;-69
2022/08/28 03:43:15;;;;;;;2.05;1.85;;;;;;;14.88;68.91;93370.88;5029632;28;20033;-69
2022/08/28 03:45:59;;;;;;;3.00;2.50;;;;;;;14.76;69.90;93381.06;5037597;28;20410;-69
2022/08/28 03:48:26;;;;;;;2.70;2.35;;;;;;;14.79;69.76;93376.41;5049601;28;20028;-69
2022/08/28 03:50:52;;;;;;;3.08;2.65;;;;;;;14.53;70.94;93382.69;5049398;28;20045;-69
2022/08/28 03:53:19;;;;;;;2.00;1.88;;;;;;;14.62;71.15;93379.97;5050771;28;20406;-69
2022/08/28 03:55:45;;;;;;;2.65;2.40;;;;;;;14.63;70.31;93384.22;5053256;28;20094;-69
2022/08/28 03:58:11;;;;;;;2.40;2.17;;;;;;;14.48;70.14;93378.13;5053050;28;20491;-69
2022/08/28 04:00:38;;;;;;;2.67;2.47;;;;;;;14.58;69.79;93382.44;5053105;28;20029;-69
2022/08/28 04:03:04;;;;;;;3.00;2.30;;;;;;;14.71;68.56;93387.63;5052006;28;20032;-69
2022/08/28 04:05:30;;;;;;;2.63;1.98;;;;;;;14.67;68.72;93384.53;5052579;28;20108;-69
2022/08/28 04:07:55;;;;;;;2.90;2.22;;;;;;;14.71;68.83;93387.63;5051595;28;20057;-69
2022/08/28 04:10:21;;;;;;;3.10;2.83;;;;;;;14.51;70.38;93399.22;5052850;28;20021;-70
2022/08/28 04:12:46;;;;;;;2.88;2.33;;;;;;;14.44;70.00;93370.22;5045610;28;20524;-69
2022/08/28 04:15:13;;;;;;;2.60;2.05;;;;;;;14.41;70.31;93371.38;5053935;28;20031;-70
2022/08/28 04:17:40;;;;;;;4.32;2.53;;;;;;;14.39;70.94;93382.31;5052300;28;20032;-70
2022/08/28 04:20:07;;;;;;;3.15;2.72;;;;;;;14.44;71.23;93386.91;5051666;28;20025;-71
2022/08/28 04:22:32;;;;;;;2.60;2.40;;;;;;;14.52;71.43;93406.97;5052538;28;20032;-70
2022/08/28 04:24:58;;;;;;;6.53;2.67;;;;;;;14.38;72.25;93403.06;5051462;28;20017;-70
2022/08/28 04:27:23;;;;;;;2.72;2.28;;;;;;;14.37;72.87;93394.03;5052407;28;20032;-71
2022/08/28 04:29:49;;;;;;;2.97;2.67;;;;;;;14.65;71.80;93409.38;5050792;28;20021;-70
2022/08/28 04:32:14;;;;;;;3.33;2.97;;;;;;;14.68;71.20;93407.50;5050087;28;20036;-70
2022/08/28 04:34:40;;;;;;;3.60;2.65;;;;;;;14.59;71.36;93397.81;5037411;28;20025;-70
2022/08/28 04:37:06;;;;;;;5.30;2.72;;;;;;;14.70;71.13;93399.31;5034365;28;20022;-71
2022/08/28 04:39:32;;;;;;;2.63;2.42;;;;;;;14.59;70.58;93403.38;5052169;28;20099;-71
2022/08/28 04:41:58;;;;;;;2.70;2.40;;;;;;;14.47;71.54;93396.84;5047605;28;20505;-71
2022/08/28 04:44:23;;;;;;;3.47;3.17;;;;;;;14.84;70.66;93412.25;5061714;28;20075;-71
2022/08/28 04:46:49;;;;;;;3.33;3.03;;;;;;;14.91;70.41;93407.91;5066393;28;20021;-71
2022/08/28 04:49:15;;;;;;;3.70;2.92;;;;;;;14.79;71.15;93396.56;5072222;28;20021;-70
2022/08/28 04:51:40;;;;;;;2.70;2.50;;;;;;;14.89;71.02;93389.03;5069484;28;20044;-71
2022/08/28 04:54:06;;;;;;;4.65;2.60;;;;;;;15.11;70.41;93410.22;5060217;28;20029;-71
2022/08/28 04:56:33;;;;;;;4.45;3.67;;;;;;;15.04;71.45;93419.38;5059077;28;20067;-71
2022/08/28 04:59:00;;;;;;;4.18;2.90;;;;;;;15.09;71.78;93421.16;5064784;28;20107;-71
2022/08/28 05:01:26;;;;;;;3.42;2.78;;;;;;;15.14;71.73;93420.16;5071787;28;20021;-69
2022/08/28 05:03:56;;;;;;;3.25;2.88;;;;;;;15.27;71.42;93430.16;5057172;28;20074;-69
2022/08/28 05:06:25;;;;;;;4.30;2.92;;;;;;;15.17;70.08;93396.75;5051946;28;20028;-70
2022/08/28 05:08:54;;;;;;;2.72;2.53;;;;;;;15.52;69.82;93427.94;5050247;28;20100;-69
2022/08/28 05:11:22;;;;;;;3.00;2.78;;;;;;;15.57;69.98;93431.75;5050443;28;20032;-69
2022/08/28 05:13:49;;;;;;;2.97;2.67;;;;;;;15.56;70.14;93416.38;5051615;28;20024;-69
2022/08/28 05:16:16;;;;;;;2.50;2.30;;;;;;;15.70;70.38;93434.13;5051492;28;20029;-69
2022/08/28 05:18:42;;;;;;;4.32;2.95;;;;;;;15.79;70.89;93430.63;5051527;28;20025;-70
2022/08/28 05:21:13;;;;;;;4.18;3.50;;;;;;;15.82;71.14;93435.03;5051523;28;20021;-68
2022/08/28 05:23:38;;;;;;;3.85;3.25;;;;;;;15.88;71.74;93443.81;5051460;28;20028;-69
2022/08/28 05:26:04;;;;;;;4.40;2.88;;;;;;;15.70;72.13;93401.44;5056762;28;20099;-69
2022/08/28 05:28:29;;;;;;;7.43;3.15;;;;;;;15.99;72.92;93436.94;5051410;28;20568;-67
2022/08/28 05:30:55;;;;;;;4.28;3.28;;;;;;;16.07;73.63;93443.84;5051004;28;20025;-69
2022/08/28 05:33:21;;;;;;;4.57;3.47;;;;;;;16.13;73.72;93440.78;5050745;28;20545;-69
2022/08/28 05:35:46;;;;;;;6.88;3.00;;;;;;;16.21;73.77;93444.16;5049811;28;20040;-69
2022/08/28 05:38:13;;;;;;;3.40;2.95;;;;;;;16.21;72.57;93430.22;5050189;28;20021;-69
2022/08/28 05:40:43;;;;;;;6.97;5.93;;;;;;;16.39;71.16;93431.56;5051037;28;20041;-69
2022/08/28 05:43:10;;;;;;;3.30;2.97;;;;;;;16.58;70.37;93443.44;5050424;28;20025;-69
2022/08/28 05:45:35;;;;;;;4.68;3.50;;;;;;;16.48;70.85;93423.16;5050918;28;20529;-69
2022/08/28 05:48:01;;;;;;;3.10;2.80;;;;;;;16.67;71.54;93437.09;5050963;28;20025;-68
2022/08/28 05:50:27;;;;;;;4.00;3.08;;;;;;;16.86;72.01;93446.78;5051600;28;20040;-69
2022/08/28 05:52:52;;;;;;;5.22;3.05;;;;;;;16.91;71.38;93438.13;5061907;28;20020;-69
2022/08/28 05:55:18;;;;;;;4.43;3.28;;;;;;;16.91;71.22;93434.59;5069338;28;20123;-69
2022/08/28 05:57:43;;;;;;;3.53;2.83;;;;;;;17.13;71.49;93450.81;5059980;28;20086;-69
2022/08/28 06:00:11;;;;;;;3.20;2.90;;;;;;;17.20;72.12;93454.75;5039763;28;20025;-68
2022/08/28 06:02:38;;;;;;;3.45;3.15;;;;;;;17.37;72.43;93460.13;5043050;28;20024;-68
2022/08/28 06:05:04;;;;;;;4.85;2.85;;;;;;;17.34;72.95;93442.53;5062395;28;20029;-68
2022/08/28 06:07:29;;;;;;;2.88;2.50;;;;;;;17.40;72.74;93425.47;5035945;28;20104;-69
2022/08/28 06:09:55;;;;;;;6.35;2.83;;;;;;;17.65;72.08;93456.50;5050239;28;20028;-68
2022/08/28 06:12:21;;;;;;;4.22;2.90;;;;;;;17.82;71.48;93459.06;5049561;28;20021;-68
2022/08/28 06:14:46;;;;;;;2.90;2.65;;;;;;;17.96;70.74;93457.22;5048733;28;20410;-68
2022/08/28 06:17:12;;;;;;;3.22;2.75;;;;;;;18.09;69.26;93447.59;5048900;28;20025;-68
2022/08/28 06:19:37;;;;;;;6.18;2.65;;;;;;;18.27;68.16;93437.63;5048210;28;20111;-68
2022/08/28 06:22:04;;;;;;;3.53;2.60;;;;;;;18.59;67.20;93453.72;5035809;28;20495;-68
2022/08/28 06:24:30;;;;;;;3.05;2.67;;;;;;;18.73;66.10;93445.50;5029951;28;20025;-68
2022/08/28 06:26:56;;;;;;;6.13;3.50;;;;;;;18.80;66.16;93444.53;5040473;28;20024;-68
2022/08/28 06:29:22;;;;;;;4.18;2.72;;;;;;;18.82;64.64;93436.28;5049296;28;20024;-68
2022/08/28 06:31:55;;;;;;;3.30;2.45;;;;;;;19.03;62.53;93453.03;5049274;28;20021;-68
2022/08/28 06:34:21;;;;;;;3.53;2.60;;;;;;;19.21;63.19;93445.75;5050417;28;20032;-69
2022/08/28 06:36:47;;;;;;;4.65;3.13;;;;;;;19.34;63.37;93450.03;5052373;28;20025;-69
2022/08/28 06:39:13;;;;;;;5.47;3.33;;;;;;;19.45;64.73;93450.06;5049112;28;20029;-69
2022/08/28 06:41:41;;;;;;;3.40;3.00;;;;;;;19.59;63.85;93445.34;5049626;28;20448;-69
2022/08/28 06:44:09;;;;;;;5.18;2.97;;;;;;;19.75;63.35;93445.56;5048932;28;20537;-68
2022/08/28 06:46:36;;;;;;;3.28;2.85;;;;;;;19.80;63.25;93426.94;5050308;28;20517;-66
2022/08/28 06:49:03;;;;;;;6.63;3.78;;;;;;;19.98;62.43;93436.41;5037451;28;20060;-68
2022/08/28 06:51:28;;;;;;;3.25;2.90;;;;;;;20.20;62.24;93444.09;5048472;28;20510;-68
2022/08/28 06:53:54;;;;;;;4.57;2.80;;;;;;;20.32;61.38;93436.38;5031300;28;20041;-68
2022/08/28 06:56:20;;;;;;;9.02;3.10;;;;;;;20.43;61.52;93434.88;5030121;28;20030;-65
2022/08/28 06:58:48;;;;;;;4.78;2.95;;;;;;;20.79;59.61;93431.31;5030283;28;20517;-66
2022/08/28 07:01:21;;;;;;;3.63;1.98;;;;;;;;;;5039552;28;20028;-67
2022/08/28 07:03:48;;;;;;;4.60;2.63;;;;;;;21.90;55.42;93437.38;5051314;28;20414;-66
2022/08/28 07:06:14;;;;;;;3.63;2.38;;;;;;;22.66;52.21;93439.84;5049508;28;20460;-66
2022/08/28 07:08:41;;;;;;;2.60;2.40;;;;;;;23.45;50.16;93436.63;5048890;28;20021;-67
2022/08/28 07:11:17;;;;;;;7.78;2.45;;;;;;;24.32;49.34;93427.13;5050020;28;20048;-66
2022/08/28 07:13:44;;;;;;;4.82;2.60;;;;;;;25.15;48.47;93428.47;5049955;28;20021;-66
2022/08/28 07:16:10;;;;;;;3.05;2.10;;;;;;;25.87;44.45;93427.03;5049743;28;20491;-65
2022/08/28 07:18:36;;;;;;;2.40;2.20;;;;;;;26.48;43.46;93429.94;5048561;28;20044;-67
2022/08/28 07:21:01;;;;;;;1.83;1.73;;;;;;;27.07;42.64;93427.00;5050118;28;20024;-68
2022/08/28 07:23:28;;;;;;;3.20;2.30;;;;;;;27.60;39.33;93435.78;5050219;28;20056;-67
2022/08/28 07:25:54;;;;;;;3.00;1.80;;;;;;;28.27;39.87;93430.72;5050073;28;20107;-69
2022/08/28 07:28:19;;;;;;;5.53;2.22;;;;;;;29.04;36.38;93421.41;5052608;28;20510;-67
2022/08/28 07:30:45;;;;;;;2.85;2.42;;;;;;;29.61;35.42;93429.91;5053608;28;20120;-68
2022/08/28 07:33:11;;;;;;;2.85;1.88;;;;;;;30.32;33.76;93426.50;5052486;28;20037;-69
2022/08/28 07:35:36;;;;;;;2.58;2.17;;;;;;;31.03;31.98;93425.72;5052201;28;20122;-69
2022/08/28 07:38:02;;;;;;;2.28;1.80;;;;;;;31.75;32.35;93431.19;5052641;28;20100;-67
2022/08/28 07:40:27;;;;;;;4.40;2.17;;;;;;;32.41;30.44;93422.81;5053794;28;20045;-70
2022/08/28 07:45:37;;;;;;;4.75;2.05;;;;;;;33.42;27.58;93430.31;5053637;28;20082;-70
2022/08/28 07:48:07;;;;;;;3.25;1.70;;;;;;;33.86;29.11;93419.22;5053231;28;20036;-68
2022/08/28 07:50:33;;;;;;;2.53;2.08;;;;;;;34.15;27.43;93409.41;5052133;28;20049;-69
2022/08/28 07:52:59;;;;;;;1.80;1.65;;;;;;;34.54;28.19;93427.50;5045622;28;20052;-69
2022/08/28 07:55:26;;;;;;;2.92;1.60;;;;;;;34.78;26.95;93424.00;5052026;28;20041;-70
2022/08/28 07:57:52;;;;;;;4.47;2.17;;;;;;;35.32;25.80;93417.66;5036076;28;20033;-70
2022/08/28 08:00:18;;;;;;;9.93;3.55;;;;;;;35.75;25.31;93419.84;5051778;28;20025;-69
2022/08/28 08:02:44;;;;;;;3.95;1.60;;;;;;;36.06;25.04;93419.81;5052901;28;20039;-69
2022/08/28 08:05:09;;;;;;;3.55;2.28;;;;;;;36.19;24.70;93424.09;5052512;28;20028;-69
2022/08/28 08:07:38;;;;;;;2.53;1.60;;;;;;;36.28;24.66;93411.84;5053550;28;20033;-69
2022/08/28 08:10:04;;;;;;;1.45;1.35;;;;;;;36.23;25.01;93412.59;5049436;28;20044;-68
2022/08/28 08:12:32;;;;;;;3.60;1.92;;;;;;;36.11;25.14;93412.63;5053136;28;20079;-68
2022/08/28 08:14:57;;;;;;;3.03;1.75;;;;;;;35.95;24.98;93406.88;5052810;28;20372;-68
2022/08/28 08:17:23;;;;;;;4.60;2.20;;;;;;;34.97;25.63;93409.00;5052157;28;20033;-69
2022/08/28 08:19:48;;;;;;;5.68;1.67;;;;;;;34.88;26.61;93403.94;5053109;28;20075;-69
2022/08/28 08:22:14;;;;;;;6.50;5.18;;;;;;;34.21;25.23;93392.22;5058662;28;20039;-68
2022/08/28 08:24:40;;;;;;;4.13;1.70;;;;;;;34.09;25.64;93400.75;5054426;28;20410;-68
2022/08/28 08:27:05;;;;;;;4.32;2.00;;;;;;;34.02;27.04;93396.44;5061950;28;20032;-69
2022/08/28 08:29:34;;;;;;;3.78;1.90;;;;;;;33.91;27.02;93409.22;5059613;28;20028;-70
2022/08/28 08:32:04;;;;;;;4.63;1.83;;;;;;;33.48;27.25;93411.03;5057978;28;20082;-69
2022/08/28 08:34:35;;;;;;;2.25;2.05;;;;;;;33.24;27.49;93422.31;5058871;28;20021;-69
2022/08/28 08:37:00;;;;;;;2.20;1.95;;;;;;;33.23;27.48;93417.28;5058396;28;20384;-68
2022/08/28 08:39:26;;;;;;;3.13;2.08;;;;;;;33.24;27.55;93401.56;5060985;28;20039;-68
2022/08/28 08:41:57;;;;;;;2.20;2.00;;;;;;;33.26;28.68;93415.88;5056972;28;20086;-68
2022/08/28 08:44:30;;;;;;;2.13;1.88;;;;;;;33.45;29.16;93418.19;5057006;28;20037;-70
2022/08/28 08:47:05;;;;;;;2.13;1.90;;;;;;;33.49;27.64;93411.75;5059360;28;20033;-69
2022/08/28 08:49:34;;;;;;;3.75;3.45;;;;;;;34.17;27.97;93414.41;5043724;28;20035;-68
2022/08/28 08:52:34;;;;;;;8.63;2.42;;;;;;;34.61;26.98;93408.88;5054020;28;20086;-69
2022/08/28 08:55:13;;;;;;;2.25;1.73;;;;;;;34.78;26.37;93407.50;5053966;28;20029;-70
2022/08/28 08:57:38;;;;;;;2.10;1.70;;;;;;;35.00;24.84;93392.50;5058381;28;20103;-70
2022/08/28 09:00:08;;;;;;;9.40;4.63;;;;;;;35.00;25.84;93395.38;5060285;28;20107;-69
2022/08/28 09:02:39;;;;;;;4.18;3.13;;;;;;;35.13;24.93;93411.19;5060233;28;20031;-70
2022/08/28 09:05:09;;;;;;;1.77;1.67;;;;;;;35.41;25.84;93408.31;5058945;28;20032;-69
2022/08/28 09:07:40;;;;;;;2.40;1.90;;;;;;;35.41;23.89;93402.59;5059939;28;20020;-69
2022/08/28 09:10:10;;;;;;;3.58;2.60;;;;;;;35.50;24.01;93404.06;5064519;28;20183;-70
2022/08/28 09:12:57;;;;;;;3.28;1.75;;;;;;;35.99;24.67;93404.75;5073858;28;20032;-69
2022/08/28 09:15:37;;;;;;;8.18;5.18;;;;;;;36.18;22.75;93388.88;5042564;28;20039;-69
2022/08/28 09:18:27;;;;;;;5.28;4.05;;;;;;;36.29;22.86;93403.94;5056969;28;20039;-69
2022/08/28 09:20:56;;;;;;;1.77;1.52;;;;;;;37.30;21.27;93407.06;5038606;28;20501;-70
2022/08/28 09:23:23;;;;;;;4.63;2.42;;;;;;;38.27;20.79;93409.16;5054992;28;20517;-69
2022/08/28 09:25:52;;;;;;;3.63;1.50;;;;;;;39.02;19.03;93403.91;5063246;28;20020;-70
2022/08/28 09:28:25;;;;;;;2.67;1.55;;;;;;;38.62;18.96;93408.00;5049962;28;20063;-70
2022/08/28 09:30:56;;;;;;;1.75;1.65;;;;;;;38.31;19.77;93409.84;5052978;28;20025;-69
2022/08/28 09:33:50;;;;;;;2.72;1.90;;;;;;;38.73;20.22;93410.78;5052464;28;20063;-71
2022/08/28 09:36:31;;;;;;;1.85;1.40;;;;;;;39.33;18.97;93402.03;5053143;28;20528;-71
2022/08/28 09:39:13;;;;;;;5.03;1.98;;;;;;;39.42;17.76;93393.25;5051965;28;20043;-71
2022/08/28 09:45:17;;;;;;;1.80;1.70;;;;;;;40.36;16.85;93397.41;5058627;28;20027;-71
2022/08/28 09:47:56;;;;;;;1.40;1.30;;;;;;;40.27;17.09;93398.31;4980793;28;20140;-69
2022/08/28 09:50:28;;;;;;;3.03;1.50;;;;;;;40.91;17.48;93399.25;5051705;28;20028;-69
2022/08/28 09:52:56;;;;;;;1.80;1.70;;;;;;;41.26;17.14;93394.84;5060711;28;20204;-70
2022/08/28 09:55:33;;;;;;;2.97;2.30;;;;;;;41.87;17.25;93396.31;5050051;28;20113;-69
2022/08/28 09:57:58;;;;;;;2.33;1.97;;;;;;;42.38;15.98;93390.66;5057217;28;20033;-68
2022/08/28 10:00:24;;;;;;;2.28;1.83;;;;;;;43.12;16.37;93390.03;5055852;28;20434;-70
2022/08/28 10:03:13;;;;;;;1.92;1.73;;;;;;;42.46;14.24;93384.63;5059095;28;20509;-70
2022/08/28 10:05:56;;;;;;;1.77;1.60;;;;;;;42.58;15.01;93387.19;5060151;28;20017;-70
2022/08/28 10:09:00;;;;;;;1.60;1.40;;;;;;;42.94;14.41;93389.09;5072978;28;20028;-71
2022/08/28 10:11:50;;;;;;;4.65;3.20;;;;;;;42.79;15.07;93388.06;5070463;28;20124;-70
2022/08/28 10:14:37;;;;;;;2.50;2.13;;;;;;;43.42;15.03;93394.94;5070947;28;20025;-68
2022/08/28 10:17:24;;;;;;;2.70;1.95;;;;;;;42.94;13.56;93388.38;5030216;28;20057;-70
2022/08/28 10:20:06;;;;;;;2.05;1.95;;;;;;;42.79;14.31;93373.53;5031612;28;20481;-70
2022/08/28 10:22:40;;;;;;;1.77;1.67;;;;;;;43.22;14.89;93378.09;5030926;28;20025;-70
2022/08/28 10:25:25;;;;;;;1.30;1.17;;;;;;;43.79;14.00;93374.13;5050257;28;20043;-70
2022/08/28 10:28:33;;;;;;;1.77;1.55;;;;;;;44.29;13.76;93370.22;5031683;28;20033;-70
2022/08/28 10:31:52;;;;;;;5.22;3.90;;;;;;;43.75;12.58;93372.06;5023917;28;20427;-69
2022/08/28 10:34:23;;;;;;;2.72;2.38;;;;;;;43.93;13.92;93377.25;5008912;28;20060;-70
2022/08/28 10:37:22;;;;;;;3.05;1.83;;;;;;;43.94;11.67;93369.97;5048755;28;20041;-70
2022/08/28 10:39:56;;;;;;;1.42;1.33;;;;;;;43.66;12.71;93368.00;5050714;28;20029;-69
2022/08/28 10:42:46;;;;;;;1.75;1.65;;;;;;;44.12;12.84;93368.66;5050038;28;20040;-69
2022/08/28 10:45:18;;;;;;;1.98;1.40;;;;;;;44.17;11.93;93358.28;5038351;28;20106;-70
2022/08/28 10:47:47;;;;;;;1.98;1.30;;;;;;;44.31;11.89;93366.53;5057321;28;20024;-69
2022/08/28 10:50:26;;;;;;;1.52;1.42;;;;;;;44.15;12.92;93367.81;5054653;28;20048;-69
2022/08/28 10:53:14;;;;;;;1.38;1.20;;;;;;;43.33;11.07;93367.59;5057388;28;20567;-69
2022/08/28 10:56:06;;;;;;;2.67;1.30;;;;;;;43.10;12.39;93363.94;5041282;28;20040;-70
2022/08/28 10:58:33;;;;;;;2.47;1.60;;;;;;;43.20;12.09;93360.72;5060623;28;20025;-70
2022/08/28 11:01:04;;;;;;;1.42;1.33;;;;;;;43.65;12.69;93366.56;5062814;28;20162;-70
2022/08/28 11:03:35;;;;;;;1.35;1.25;;;;;;;43.54;12.32;93356.72;5069229;28;20139;-70
2022/08/28 11:06:10;;;;;;;2.50;1.80;;;;;;;43.13;11.24;93359.47;5059228;28;20029;-70
2022/08/28 11:08:37;;;;;;;2.10;1.67;;;;;;;42.70;12.62;93357.09;5061074;28;20536;-69
2022/08/28 11:11:05;;;;;;;1.53;1.43;;;;;;;42.78;12.85;93366.28;5054121;28;20033;-70
2022/08/28 11:13:45;;;;;;;3.08;1.20;;;;;;;42.83;11.22;93361.06;5052702;28;20112;-70
2022/08/28 11:16:43;;;;;;;1.88;1.42;;;;;;;42.56;12.26;93349.50;5054375;28;20024;-70
2022/08/28 11:19:23;;;;;;;2.00;1.45;;;;;;;42.71;12.90;93362.13;5005653;28;20413;-69
2022/08/28 11:22:03;;;;;;;1.52;1.42;;;;;;;42.08;12.67;93347.94;5064874;28;20028;-68
2022/08/28 11:24:34;;;;;;;1.98;1.50;;;;;;;41.52;12.38;93339.16;5064160;28;20064;-71
2022/08/28 11:27:31;;;;;;;2.72;1.48;;;;;;;41.14;14.13;93345.13;5055789;28;20028;-70
2022/08/28 11:30:09;;;;;;;1.70;1.60;;;;;;;41.03;14.04;93352.63;5053375;28;20086;-70
2022/08/28 11:32:50;;;;;;;2.00;1.70;;;;;;;40.81;15.14;93354.53;5052375;28;20045;-69
2022/08/28 11:35:45;;;;;;;1.77;1.67;;;;;;;40.77;14.40;93345.22;5059151;28;20036;-70
2022/08/28 11:38:12;;;;;;;2.08;1.88;;;;;;;40.68;14.27;93341.06;5049979;28;20475;-70
2022/08/28 11:40:39;;;;;;;2.15;1.80;;;;;;;40.20;13.74;93336.25;5050369;28;20036;-70
2022/08/28 11:43:14;;;;;;;2.60;1.83;;;;;;;39.92;14.78;93338.19;5051265;28;20021;-71
2022/08/28 11:45:44;;;;;;;4.35;1.67;;;;;;;39.37;14.79;93337.69;5048702;28;20474;-69
2022/08/28 11:48:22;;;;;;;2.15;2.00;;;;;;;39.20;16.84;93345.19;5050586;28;20032;-69
2022/08/28 11:50:53;;;;;;;;;;;;;;;38.86;15.17;93342.78;5050036;28;20055;-68
2022/08/28 11:53:21;;;;;;;2.78;1.77;;;;;;;38.68;14.71;93335.09;5050887;28;19912;-69
2022/08/28 11:56:21;;;;;;;1.92;1.30;;;;;;;38.29;15.11;93329.06;5052547;28;20029;-69